Norient Star — 9HRV9 — position and weather

sailwx.info

Track history (hours):
 
Tides and Currents Weather Stations Pressure Air Temp Water Temp Dewpoint Dewpoint Depression Visibility Wind Speed Wind Dir Waves Ship Positions

Norient Star

Last reported at 2016-Jun-25 18:22 UTC. Time now 2016-Jul-02 03:58 UTC.
Position N 01°15' E 104°04'.

Length 180 m; draft 9.7 m.

Type: Ship. MMSI: 249434000.

Date/timePositionNaut miles runAvg speedWind from/ knotsBaromVisibWave heightAir tempDewpointWater temp
2016-Jun-25 18:22N 01°15' E 104°04'7 8.5
2016-Jun-25 17:33N 01°15' E 103°57'2 1.4
2016-Jun-25 16:07N 01°17' E 103°56'0 0.0
2016-Jun-25 13:25N 01°17' E 103°56'0 0.0
2016-Jun-25 12:31N 01°17' E 103°56'0 0.1
2016-Jun-25 11:31N 01°17' E 103°56'0 0.1
2016-Jun-25 10:34N 01°17' E 103°56'0 0.0
2016-Jun-25 08:19N 01°17' E 103°56'0 0.0
2016-Jun-25 05:31N 01°17' E 103°56'0 0.0
2016-Jun-25 04:10N 01°17' E 103°56'2 3.2
2016-Jun-25 03:33N 01°16' E 103°57'5 4.7
2016-Jun-25 02:33N 01°12' E 103°54'9 8.6
2016-Jun-25 01:33N 01°09' E 103°46'88 8.7
2016-Jun-24 15:20N 01°48' E 102°27'8 9.9
2016-Jun-24 14:33N 01°51' E 102°20'  
Track history (hours):
 
Tides and Currents Weather Stations Pressure Air Temp Water Temp Dewpoint Dewpoint Depression Visibility Wind Speed Wind Dir Waves Ship Positions

Norient Star

Last reported at 2016-Jun-25 18:22 UTC. Time now 2016-Jul-02 03:58 UTC.
Position N 01°15' E 104°04'.

Length 180 m; draft 9.7 m.

Type: Ship. MMSI: 249434000.

Date/timePositionNaut miles runAvg speedWind from/ knotsBaromVisibWave heightAir tempDewpointWater temp
2016-Jun-25 18:22N 01°15' E 104°04'7 8.5
2016-Jun-25 17:33N 01°15' E 103°57'2 1.4
2016-Jun-25 16:07N 01°17' E 103°56'0 0.0
2016-Jun-25 13:25N 01°17' E 103°56'0 0.0
2016-Jun-25 12:31N 01°17' E 103°56'0 0.1
2016-Jun-25 11:31N 01°17' E 103°56'0 0.1
2016-Jun-25 10:34N 01°17' E 103°56'0 0.0
2016-Jun-25 08:19N 01°17' E 103°56'0 0.0
2016-Jun-25 05:31N 01°17' E 103°56'0 0.0
2016-Jun-25 04:10N 01°17' E 103°56'2 3.2
2016-Jun-25 03:33N 01°16' E 103°57'5 4.7
2016-Jun-25 02:33N 01°12' E 103°54'9 8.6
2016-Jun-25 01:33N 01°09' E 103°46'88 8.7
2016-Jun-24 15:20N 01°48' E 102°27'8 9.9
2016-Jun-24 14:33N 01°51' E 102°20'  

Dump ship's entire track history